WetterOnline ( https://www.wetteronline.de )

Wetter aktuell Místo

Aktuelles Wetter: Fichtelberg (1215m)

6-stündlich | Neueste Meldungen
Ortszeit Temperatur Wetter
Do, 13.06. 8:00 6.8° C bewölkt
Do, 13.06. 2:00 5.4° C bewölkt
Mi, 12.06. 20:00 8.3° C bedeckt
Mi, 12.06. 14:00 10.4° C bewölkt
Mi, 12.06. 8:00 6.5° C wolkenlos
Mi, 12.06. 2:00 4.1° C bedeckt
Di, 11.06. 20:00 8.5° C wolkig
Di, 11.06. 14:00 9.2° C bewölkt
Ortszeit Temperatur Wetter
Do, 13.06. 10:00 6.3° C Regen
Do, 13.06. 9:50 6.3° C Regen
Do, 13.06. 9:40 6.9° C leichter Regen
Do, 13.06. 9:30 7.3° C bedeckt
Do, 13.06. 9:20 7.3° C bedeckt
Do, 13.06. 9:10 6.9° C bedeckt
Do, 13.06. 9:00 6.8° C bewölkt
Do, 13.06. 8:30 7.5° C bewölkt
Do, 13.06. 8:00 6.8° C bewölkt
Do, 13.06. 7:30 7.0° C bewölkt
Do, 13.06. 7:00 6.7° C bedeckt
Ortszeit Relative Feuchte Sichtweite
Do, 13.06. 8:00 82% 40 km
Do, 13.06. 2:00 82% 50 km
Mi, 12.06. 20:00 77% 55 km
Mi, 12.06. 14:00 65% >70 km
Mi, 12.06. 8:00 70% 50 km
Mi, 12.06. 2:00 85% 60 km
Di, 11.06. 20:00 58% >70 km
Di, 11.06. 14:00 61% 55 km
Ortszeit Relative Feuchte Sichtweite
Do, 13.06. 10:00 87% 13 km
Do, 13.06. 9:50 87% -
Do, 13.06. 9:40 86% -
Do, 13.06. 9:30 84% 50 km
Do, 13.06. 9:20 84% -
Do, 13.06. 9:10 86% -
Do, 13.06. 9:00 83% 45 km
Do, 13.06. 8:30 82% 50 km
Do, 13.06. 8:00 82% 40 km
Do, 13.06. 7:30 83% 50 km
Do, 13.06. 7:00 83% 50 km
Ortszeit Niederschlagsmenge Niederschlagsart
Do, 13.06. 8:00 0.1 l/m2 in 12 Std. -
Do, 13.06. 2:00 0.1 l/m2 in 6 Std. Regen
Mi, 12.06. 20:00 0.8 l/m2 in 12 Std. Regen
Mi, 12.06. 14:00 0.5 l/m2 in 6 Std. Regenschauer
Mi, 12.06. 8:00 0.0 l/m2 in 12 Std. -
Mi, 12.06. 2:00 0.0 l/m2 in 6 Std. -
Di, 11.06. 20:00 0.0 l/m2 in 12 Std. -
Di, 11.06. 14:00 0.0 l/m2 in 6 Std. -
Ortszeit Niederschlagsmenge Niederschlagsart
Do, 13.06. 10:00 0.3 l/m2 in 1 Std. Regen
Do, 13.06. 9:50 keine Meldung -
Do, 13.06. 9:40 keine Meldung -
Do, 13.06. 9:30 0.0 l/m2 in 30 Min -
Do, 13.06. 9:20 keine Meldung -
Do, 13.06. 9:10 keine Meldung -
Do, 13.06. 9:00 0.0 l/m2 in 1 Std. -
Do, 13.06. 8:30 0.0 l/m2 in 30 Min -
Do, 13.06. 8:00 0.0 l/m2 in 1 Std. -
Do, 13.06. 7:30 0.0 l/m2 in 30 Min -
Do, 13.06. 7:00 0.0 l/m2 in 1 Std. -
Ortszeit Stärke Spitze Richtung
km/h Bft. km/h Grad Sektor
Do, 13.06. 8:00 7 2 18 280° W
Do, 13.06. 2:00 7 2 18 350° N
Mi, 12.06. 20:00 6 1 43 320° NW
Mi, 12.06. 14:00 13 3 43 250° W
Mi, 12.06. 8:00 22 4 32 280° W
Mi, 12.06. 2:00 20 4 52 310° NW
Di, 11.06. 20:00 36 5 54 290° W
Di, 11.06. 14:00 35 5 96 280° W
Ortszeit Stärke Spitze Richtung
km/h Bft. km/h Grad Sektor
Do, 13.06. 10:00 9 2 17 50° NO
Do, 13.06. 9:50 9 2 - 50° NO
Do, 13.06. 9:40 11 2 - 110° O
Do, 13.06. 9:30 7 2 14 250° W
Do, 13.06. 9:20 7 2 - 250° W
Do, 13.06. 9:10 9 2 - 290° W
Do, 13.06. 9:00 7 2 14 320° NW
Do, 13.06. 8:30 6 1 15 170° S
Do, 13.06. 8:00 7 2 18 280° W
Do, 13.06. 7:30 7 2 14 250° W
Do, 13.06. 7:00 6 1 17 160° S
Ortszeit Untergrenze Bedeckung Gattung
total tief tief mittel hoch
Do, 13.06. 8:00 690 m 7/8 7/8 - - -
Do, 13.06. 2:00 2400 m 8/8 7/8 - - -
Mi, 12.06. 20:00 600 m 8/8 8/8 - - -
Mi, 12.06. 14:00 990 m 7/8 7/8 - - -
Mi, 12.06. 8:00 - 0/8 0/8 - - -
Mi, 12.06. 2:00 3600 m 8/8 8/8 - - -
Di, 11.06. 20:00 1020 m 8/8 1/8 - - -
Di, 11.06. 14:00 810 m 8/8 5/8 - - -
Ortszeit Bedeckungsgrad in Achtel und Wolkenuntergrenze
Do, 13.06. 10:00 4(360m) 7(660m) 8(900m)
Do, 13.06. 9:50 4(360m) 7(660m) 8(900m)
Do, 13.06. 9:40 8
Do, 13.06. 9:30 1(390m) 7(1800m) 8(2400m)
Do, 13.06. 9:20 1(390m) 7(1800m) 8(2400m)
Do, 13.06. 9:10 8
Do, 13.06. 9:00 2(360m) 3(750m) 7(1800m)
Do, 13.06. 8:30 1(330m) 7(1500m)
Do, 13.06. 8:00 1(690m) 7(1500m) 7(2100m)
Do, 13.06. 7:30 1(690m) 7(1500m) 7(2100m)
Do, 13.06. 7:00 8(1800m)
Ortszeit Stationsdruck (hPa) Tendenz (hPa in 3 Std.)
Do, 13.06. 8:00 880 + 0,4
Do, 13.06. 2:00 880 - 0,2
Mi, 12.06. 20:00 880 - 0,2
Mi, 12.06. 14:00 880 + 0,2
Mi, 12.06. 8:00 880 + 0,7
Mi, 12.06. 2:00 879 + 0,4
Di, 11.06. 20:00 878 + 0,4
Di, 11.06. 14:00 877 + 1,2
Ortszeit Stationsdruck (hPa) Tendenz (hPa in 3 Std.)
Do, 13.06. 10:00 880 + 0,4
Do, 13.06. 9:50 880 keine Meldung
Do, 13.06. 9:40 880 keine Meldung
Do, 13.06. 9:30 880 + 0,4
Do, 13.06. 9:20 880 keine Meldung
Do, 13.06. 9:10 880 keine Meldung
Do, 13.06. 9:00 880 + 0,6
Do, 13.06. 8:30 880 + 0,5
Do, 13.06. 8:00 880 + 0,4
Do, 13.06. 7:30 880 + 0,4
Do, 13.06. 7:00 880 0,0
Ortszeit Schneehöhe (cm)
Do, 13.06. 8:00 0
Do, 13.06. 2:00 0
Mi, 12.06. 20:00 0
Mi, 12.06. 14:00 0
Mi, 12.06. 8:00 0
Mi, 12.06. 2:00 0
Di, 11.06. 20:00 0
Di, 11.06. 14:00 0
Ortszeit Schneehöhe (cm)
Do, 13.06. 10:00 0
Do, 13.06. 9:50 0
Do, 13.06. 9:40 -
Do, 13.06. 9:30 0
Do, 13.06. 9:20 0
Do, 13.06. 9:10 -
Do, 13.06. 9:00 0
Do, 13.06. 8:30 0
Do, 13.06. 8:00 0
Do, 13.06. 7:30 0
Do, 13.06. 7:00 0
Link zu dieser Seite / Seite empfehlen

Das Wetter in ...